女満別空港の過去48時間の天気

女満別空港 (Memanbetsu)

現在時刻: 10/14 11:12 JST (10/14 02:12 UTC) 以下の時間は現地時間です。

過去48時間のMETAR気象情報
時間 風向 風速(m/s) 視程 気温(℃) 湿度(%) 気圧(hPa) 天気現象
14 10:00 2 10km以上 8 61 1022
14 09:00 南南西 3 10km以上 6 70 1024
14 08:00 南南西 4 10km以上 4 75 1024
14 07:45 3 10km以上 4 75 1024
13 20:00 西南西 2 10km以上 6 61 1021
13 19:00 北西 2 10km以上 7 61 1020
13 18:00 北北西 4 10km以上 7 61 1018
13 17:00 北北西 4 10km以上 7 57 1017
13 16:00 北北西 8 10km以上 9 53 1016
13 15:00 北北西 8 10km以上 9 57 1015
13 14:00 北北西 8 10km以上 11 50 1013
13 13:00 11 10km以上 10 58 1012
13 12:00 8 10km以上 10 58 1011
13 11:00 9 10km以上 9 62 1011
13 10:00 8 10km以上 8 71 1012
13 09:00 北北東 4 10km以上 7 81 1012 弱いしゅう雨
13 08:32 北北東 6 5000m 6 87 1012 弱いしゅう雨 もや
13 08:00 7 4000m 7 87 1013 しゅう雨 もや
13 07:45 6 3500m 7 87 1013 しゅう雨 もや
12 20:00 西 2 10km以上 9 76 1021
12 19:00 北西 2 10km以上 9 76 1022
12 18:00 北北西 2 10km以上 10 76 1021
12 17:00 2 10km以上 11 67 1021
12 16:00 4 10km以上 11 71 1021
12 15:00 北北西 4 10km以上 11 71 1021
12 14:00 5 10km以上 12 62 1021
12 13:00 4 10km以上 12 67 1021
12 12:00 北北西 4 10km以上 12 67 1022
RJCM 140100Z 19004KT 150V230 CAVOK 08/01 Q1022
RJCM 140000Z 20005KT CAVOK 06/01 Q1024
RJCM 132300Z 20007KT CAVOK 04/M00 Q1024
RJCM 132245Z 19005KT CAVOK 04/M00 Q1024 RMK A3025
RJCM 131100Z 25003KT 9999 FEW030 BKN045 06/M01 Q1021
RJCM 131000Z 32004KT 290V360 9999 FEW030 BKN045 07/M00 Q1020
RJCM 130900Z 33007KT 9999 FEW030 BKN045 07/M00 Q1018
RJCM 130800Z 33008KT 9999 FEW030 SCT040 07/M01 Q1017
RJCM 130700Z 34015KT 9999 FEW030 SCT040 09/00 Q1016
RJCM 130600Z 34015KT 9999 FEW030 SCT040 09/01 Q1015
RJCM 130500Z 34016KT 9999 FEW030 BKN040 11/01 Q1013
RJCM 130400Z 35021KT 9999 FEW030 BKN040 10/02 Q1012
RJCM 130300Z 36016KT 9999 FEW015 SCT030 BKN/// 10/02 Q1011
RJCM 130200Z 36018KT 9999 FEW010 SCT020 BKN040 09/02 Q1011
RJCM 130100Z 01016KT 9999 FEW010 SCT020 BKN070 08/03 Q1012
RJCM 130000Z 03008KT 9999 -SHRA FEW010 SCT020 BKN040 07/04 Q1012
RJCM 122332Z 02011KT 5000 -SHRA BR FEW008 SCT015 BKN030 06/04 Q1012 RMK 1ST008 3ST015 6CU030 A2991
RJCM 122300Z 01013KT 4000 SHRA BR FEW006 SCT015 BKN030 07/05 Q1013
RJCM 122245Z 01011KT 3500 SHRA BR FEW006 SCT015 BKN030 07/05 Q1013 RMK 1ST006 3ST015 6CU030 A2992
RJCM 121100Z 28003KT 9999 FEW020 SCT130 BKN140 09/05 Q1021
RJCM 121000Z 31003KT 9999 FEW020 SCT130 BKN140 09/05 Q1022
RJCM 120900Z 34003KT 310V060 9999 FEW020 SCT050 BKN150 10/06 Q1021
RJCM 120800Z 36003KT 320V040 9999 FEW020 SCT030 BKN150 11/05 Q1021
RJCM 120700Z 35007KT 9999 FEW020 SCT140 BKN150 11/06 Q1021
RJCM 120600Z 34007KT 310V020 9999 FEW020 BKN150 11/06 Q1021
RJCM 120500Z 35009KT 9999 FEW020 SCT025 BKN150 12/05 Q1021
RJCM 120400Z 35008KT 9999 FEW020 SCT025 BKN160 12/06 Q1021
RJCM 120300Z 34007KT 9999 FEW020 SCT025 BKN170 12/06 Q1022